createdAt,value
2022-12-31T00:00:57.492Z,10.875
2022-12-31T00:03:57.291Z,10.812
2022-12-31T00:06:56.921Z,10.875
2022-12-31T00:09:56.880Z,10.875
2022-12-31T00:12:57.220Z,10.562
2022-12-31T00:15:57.751Z,10.625
2022-12-31T00:18:57.608Z,10.687
2022-12-31T00:21:57.424Z,10.687
2022-12-31T00:24:57.734Z,10.75
2022-12-31T00:27:56.671Z,10.812
2022-12-31T00:30:57.789Z,11.0
2022-12-31T00:34:02.061Z,11.0
2022-12-31T00:36:57.021Z,11.125
2022-12-31T00:39:57.917Z,10.875
2022-12-31T00:42:57.306Z,10.937
2022-12-31T00:45:57.587Z,10.875
2022-12-31T00:48:56.812Z,10.937
2022-12-31T00:51:57.059Z,10.812
2022-12-31T00:54:58.037Z,10.812
2022-12-31T00:57:57.004Z,11.0
2022-12-31T01:00:57.323Z,10.875
2022-12-31T01:03:57.813Z,11.062
2022-12-31T01:06:56.555Z,11.062
2022-12-31T01:09:57.711Z,11.0
2022-12-31T01:12:57.131Z,11.187
2022-12-31T01:15:57.804Z,11.187
2022-12-31T01:18:56.856Z,11.125
2022-12-31T01:21:57.859Z,11.125
2022-12-31T01:24:56.858Z,11.125
2022-12-31T01:27:57.909Z,11.125
2022-12-31T01:30:57.741Z,11.25
2022-12-31T01:33:57.752Z,11.312
2022-12-31T01:36:56.822Z,11.437
2022-12-31T01:39:58.027Z,11.437
2022-12-31T01:42:57.304Z,11.437
2022-12-31T01:45:56.922Z,11.312
2022-12-31T01:48:57.317Z,11.687
2022-12-31T01:51:57.408Z,11.687
2022-12-31T01:54:57.590Z,11.687
2022-12-31T01:57:58.339Z,11.687
2022-12-31T02:00:57.661Z,11.687
2022-12-31T02:03:57.423Z,11.437
2022-12-31T02:06:57.052Z,11.437
2022-12-31T02:09:57.619Z,11.625
2022-12-31T02:12:57.830Z,11.812
2022-12-31T02:15:58.098Z,11.812
2022-12-31T02:18:57.386Z,11.75
2022-12-31T02:21:56.977Z,11.937
2022-12-31T02:24:57.816Z,11.937
2022-12-31T02:27:56.953Z,12.125
2022-12-31T02:30:57.644Z,12.25
2022-12-31T02:33:57.415Z,12.5
2022-12-31T02:36:56.982Z,12.437
2022-12-31T02:39:57.108Z,12.562
2022-12-31T02:42:57.740Z,12.562
2022-12-31T02:45:57.355Z,12.125
2022-12-31T02:48:57.832Z,11.937
2022-12-31T02:51:57.565Z,12.25
2022-12-31T02:54:57.553Z,12.562
2022-12-31T02:57:58.054Z,12.437
2022-12-31T03:00:57.747Z,12.375
2022-12-31T03:03:57.228Z,12.125
2022-12-31T03:06:57.393Z,12.125
2022-12-31T03:09:57.794Z,12.187
2022-12-31T03:12:57.468Z,12.187
2022-12-31T03:15:57.150Z,11.937
2022-12-31T03:18:57.906Z,12.687
2022-12-31T03:21:57.676Z,12.812
2022-12-31T03:24:57.121Z,12.5
2022-12-31T03:27:58.189Z,12.5
2022-12-31T03:30:57.115Z,12.25
2022-12-31T03:33:56.573Z,12.5
2022-12-31T03:36:57.321Z,12.562
2022-12-31T03:39:57.615Z,12.687
2022-12-31T03:42:56.875Z,12.875
2022-12-31T03:45:57.284Z,12.75
2022-12-31T03:48:57.119Z,12.562
2022-12-31T03:51:57.619Z,12.562
2022-12-31T03:54:57.018Z,12.812
2022-12-31T03:57:57.880Z,12.75
2022-12-31T04:00:57.543Z,13.0
2022-12-31T04:03:57.019Z,13.125
2022-12-31T04:06:57.814Z,13.0
2022-12-31T04:09:57.318Z,12.812
2022-12-31T04:12:57.617Z,13.0
2022-12-31T04:15:57.811Z,12.562
2022-12-31T04:18:57.461Z,12.875
2022-12-31T04:21:56.856Z,12.875
2022-12-31T04:24:56.830Z,13.312
2022-12-31T04:27:57.415Z,12.937
2022-12-31T04:30:57.409Z,12.937
2022-12-31T04:33:58.237Z,13.187
2022-12-31T04:36:56.693Z,13.25
2022-12-31T04:40:01.837Z,13.437
2022-12-31T04:42:57.613Z,13.625
2022-12-31T04:45:57.186Z,13.437
2022-12-31T04:48:57.618Z,13.687
2022-12-31T04:51:57.125Z,13.687
2022-12-31T04:54:57.892Z,13.687
2022-12-31T04:57:57.912Z,13.625
2022-12-31T05:00:57.931Z,13.75
2022-12-31T05:03:57.407Z,13.75
2022-12-31T05:06:57.752Z,13.812
2022-12-31T05:09:57.671Z,13.875
2022-12-31T05:12:57.950Z,13.562
2022-12-31T05:15:59.670Z,13.687
2022-12-31T05:18:57.631Z,13.625
2022-12-31T05:21:57.042Z,13.562
2022-12-31T05:24:57.081Z,13.562
2022-12-31T05:27:56.483Z,13.562
2022-12-31T05:30:57.443Z,13.562
2022-12-31T05:33:58.720Z,13.5
2022-12-31T05:36:57.489Z,13.625
2022-12-31T05:39:57.951Z,13.875
2022-12-31T05:42:57.570Z,13.75
2022-12-31T05:45:57.370Z,13.75
2022-12-31T05:48:56.992Z,13.75
2022-12-31T05:51:57.834Z,13.75
2022-12-31T05:54:57.415Z,13.437
2022-12-31T05:57:57.097Z,13.5
2022-12-31T06:00:57.941Z,13.375
2022-12-31T06:03:57.880Z,13.375
2022-12-31T06:06:57.765Z,13.75
2022-12-31T06:09:56.966Z,13.75
2022-12-31T06:12:57.047Z,13.375
2022-12-31T06:15:57.998Z,13.375
2022-12-31T06:18:57.348Z,13.562
2022-12-31T06:21:57.776Z,13.437
2022-12-31T06:24:57.791Z,13.562
2022-12-31T06:27:57.071Z,13.562
2022-12-31T06:30:57.652Z,13.187
2022-12-31T06:33:57.318Z,13.187
2022-12-31T06:36:57.729Z,13.5
2022-12-31T06:39:57.347Z,14.0
2022-12-31T06:43:00.181Z,13.687
2022-12-31T06:45:57.216Z,13.75
2022-12-31T06:48:57.701Z,13.75
2022-12-31T06:51:57.288Z,13.812
2022-12-31T06:54:57.192Z,14.0
2022-12-31T06:57:57.397Z,13.75
2022-12-31T07:00:57.435Z,13.812
2022-12-31T07:03:57.496Z,13.812
2022-12-31T07:06:56.897Z,13.812
2022-12-31T07:10:02.783Z,13.875
2022-12-31T07:12:57.047Z,13.937
2022-12-31T07:15:57.744Z,13.875
2022-12-31T07:18:57.098Z,13.875
2022-12-31T07:21:57.953Z,13.5
2022-12-31T07:24:57.830Z,13.437
2022-12-31T07:27:57.045Z,13.75
2022-12-31T07:30:56.900Z,13.812
2022-12-31T07:33:57.839Z,13.875
2022-12-31T07:36:57.219Z,13.812
2022-12-31T07:39:58.216Z,13.937
2022-12-31T07:42:57.083Z,13.5
2022-12-31T07:45:56.823Z,13.5
2022-12-31T07:48:56.786Z,13.562
2022-12-31T07:51:57.451Z,13.562
2022-12-31T07:54:56.904Z,13.812
2022-12-31T07:57:58.131Z,13.937
2022-12-31T08:00:57.965Z,13.875
2022-12-31T08:03:56.805Z,13.687
2022-12-31T08:06:57.448Z,13.687
2022-12-31T08:09:58.443Z,13.125
2022-12-31T08:12:58.342Z,13.125
2022-12-31T08:15:57.533Z,12.875
2022-12-31T08:18:57.467Z,12.687
2022-12-31T08:21:57.155Z,12.875
2022-12-31T08:24:57.294Z,12.875
2022-12-31T08:28:02.873Z,12.875
2022-12-31T08:30:57.101Z,12.375
2022-12-31T08:34:02.039Z,12.25
2022-12-31T08:36:57.264Z,12.25
2022-12-31T08:39:57.916Z,12.25
2022-12-31T08:42:57.175Z,12.375
2022-12-31T08:45:57.778Z,12.375
2022-12-31T08:48:56.999Z,12.562
2022-12-31T08:51:58.109Z,12.562
2022-12-31T08:54:57.227Z,12.687
2022-12-31T08:57:56.829Z,13.125
2022-12-31T09:00:58.271Z,13.125
2022-12-31T09:03:57.666Z,13.562
2022-12-31T09:06:57.560Z,13.562
2022-12-31T09:09:57.215Z,14.062
2022-12-31T09:12:57.534Z,14.312
2022-12-31T09:15:57.901Z,13.875
2022-12-31T09:18:57.393Z,13.5
2022-12-31T09:21:58.220Z,13.5
2022-12-31T09:24:57.884Z,13.062
2022-12-31T09:27:57.245Z,13.0
2022-12-31T09:30:57.213Z,13.0
2022-12-31T09:33:57.079Z,13.312
2022-12-31T09:36:57.614Z,13.312
2022-12-31T09:39:57.991Z,13.562
2022-12-31T09:42:57.125Z,13.875
2022-12-31T09:45:57.623Z,14.0
2022-12-31T09:48:57.034Z,14.0
2022-12-31T09:51:58.014Z,14.0
2022-12-31T09:54:57.290Z,14.0
2022-12-31T09:57:56.970Z,14.625
2022-12-31T10:00:57.586Z,15.375
2022-12-31T10:03:57.946Z,15.625
2022-12-31T10:06:57.617Z,15.625
2022-12-31T10:09:57.073Z,15.75
2022-12-31T10:12:57.598Z,16.187
2022-12-31T10:15:57.196Z,16.0
2022-12-31T10:18:58.205Z,15.875
2022-12-31T10:21:57.607Z,16.0
2022-12-31T10:24:57.556Z,16.0
2022-12-31T10:27:57.185Z,15.875
2022-12-31T10:30:57.167Z,16.187
2022-12-31T10:33:57.647Z,16.187
2022-12-31T10:36:56.850Z,17.062
2022-12-31T10:39:57.335Z,17.062
2022-12-31T10:42:57.941Z,17.062
2022-12-31T10:45:57.024Z,17.125
2022-12-31T10:48:57.418Z,17.187
2022-12-31T10:51:57.843Z,17.187
2022-12-31T10:54:57.771Z,17.125
2022-12-31T10:58:03.617Z,17.125
2022-12-31T11:00:57.923Z,17.0
2022-12-31T11:04:15.785Z,17.0
2022-12-31T11:06:58.008Z,16.937
2022-12-31T11:09:56.952Z,17.062
2022-12-31T11:12:57.694Z,17.187
2022-12-31T11:15:57.613Z,17.187
2022-12-31T11:18:57.320Z,17.187
2022-12-31T11:21:57.690Z,17.375
2022-12-31T11:24:57.688Z,17.187
2022-12-31T11:27:56.686Z,17.25
2022-12-31T11:30:57.706Z,17.25
2022-12-31T11:33:57.702Z,17.0
2022-12-31T11:36:57.049Z,17.25
2022-12-31T11:39:57.498Z,17.125
2022-12-31T11:42:57.393Z,17.125
2022-12-31T11:45:57.372Z,16.875
2022-12-31T11:48:57.263Z,17.125
2022-12-31T11:51:58.171Z,17.0
2022-12-31T11:54:58.100Z,17.0
2022-12-31T11:57:57.713Z,16.937
2022-12-31T12:00:57.556Z,16.937
2022-12-31T12:03:57.659Z,17.125
2022-12-31T12:06:57.470Z,17.312
2022-12-31T12:09:57.860Z,16.875
2022-12-31T12:12:57.067Z,17.0
2022-12-31T12:15:57.526Z,16.937
2022-12-31T12:18:57.236Z,17.5
2022-12-31T12:21:57.832Z,17.5
2022-12-31T12:24:57.718Z,17.312
2022-12-31T12:27:57.383Z,17.5
2022-12-31T12:30:58.099Z,17.25
2022-12-31T12:33:57.551Z,17.375
2022-12-31T12:36:58.043Z,17.562
2022-12-31T12:39:57.460Z,17.5
2022-12-31T12:42:58.136Z,17.312
2022-12-31T12:45:57.431Z,17.25
2022-12-31T12:48:57.540Z,17.375
2022-12-31T12:51:57.410Z,17.375
2022-12-31T12:54:57.512Z,17.437
2022-12-31T12:57:57.510Z,17.125
2022-12-31T13:00:58.016Z,17.0
2022-12-31T13:04:33.030Z,16.75
2022-12-31T13:06:57.902Z,17.0
2022-12-31T13:09:57.732Z,17.062
2022-12-31T13:15:57.373Z,16.062
2022-12-31T13:18:57.680Z,15.812
2022-12-31T13:21:57.992Z,15.562
2022-12-31T13:24:57.287Z,15.562
2022-12-31T13:27:57.529Z,15.375
2022-12-31T13:31:01.779Z,15.187
2022-12-31T13:33:57.248Z,14.937
2022-12-31T13:36:57.894Z,14.875
2022-12-31T13:39:56.946Z,14.75
2022-12-31T13:42:57.251Z,14.75
2022-12-31T13:45:57.317Z,14.687
2022-12-31T13:48:56.989Z,14.625
2022-12-31T13:51:57.322Z,14.625
2022-12-31T13:54:57.979Z,14.625
2022-12-31T13:57:57.663Z,14.375
2022-12-31T14:00:58.069Z,14.375
2022-12-31T14:03:57.596Z,14.312
2022-12-31T14:06:57.435Z,14.375
2022-12-31T14:09:58.112Z,14.312
2022-12-31T14:12:57.983Z,14.25
2022-12-31T14:15:57.163Z,14.187
2022-12-31T14:18:57.719Z,14.125
2022-12-31T14:21:57.208Z,14.062
2022-12-31T14:24:57.425Z,14.0
2022-12-31T14:27:57.859Z,13.875
2022-12-31T14:30:57.985Z,13.875
2022-12-31T14:33:57.621Z,13.937
2022-12-31T14:36:57.778Z,13.937
2022-12-31T14:39:57.996Z,13.937
2022-12-31T14:42:57.701Z,13.625
2022-12-31T14:45:57.360Z,13.562
2022-12-31T14:48:57.667Z,13.562
2022-12-31T14:51:57.154Z,13.562
2022-12-31T14:54:56.902Z,13.312
2022-12-31T14:58:27.855Z,13.437
2022-12-31T15:00:57.699Z,13.437
2022-12-31T15:03:57.989Z,13.5
2022-12-31T15:06:56.769Z,13.187
2022-12-31T15:09:56.831Z,13.25
2022-12-31T15:12:57.191Z,13.125
2022-12-31T15:15:57.682Z,12.875
2022-12-31T15:18:57.146Z,12.75
2022-12-31T15:21:57.430Z,12.5
2022-12-31T15:24:57.232Z,12.437
2022-12-31T15:27:57.936Z,12.437
2022-12-31T15:30:57.424Z,12.5
2022-12-31T15:33:56.630Z,12.5
2022-12-31T15:36:57.969Z,12.5
2022-12-31T15:39:57.333Z,12.625
2022-12-31T15:42:58.017Z,12.5
2022-12-31T15:45:57.477Z,12.5
2022-12-31T15:49:03.674Z,12.562
2022-12-31T15:51:57.892Z,12.562
2022-12-31T15:54:57.106Z,12.562
2022-12-31T15:57:57.823Z,12.5
2022-12-31T16:00:57.768Z,12.437
2022-12-31T16:03:57.842Z,12.437
2022-12-31T16:06:57.307Z,12.312
2022-12-31T16:09:56.828Z,12.375
2022-12-31T16:12:57.361Z,12.437
2022-12-31T16:15:57.647Z,12.375
2022-12-31T16:18:57.041Z,12.25
2022-12-31T16:21:57.676Z,12.125
2022-12-31T16:27:57.874Z,12.187
2022-12-31T16:30:57.447Z,12.187
2022-12-31T16:33:57.369Z,12.062
2022-12-31T16:36:57.067Z,12.062
2022-12-31T16:39:57.697Z,12.062
2022-12-31T16:42:57.305Z,12.125
2022-12-31T16:45:57.669Z,12.125
2022-12-31T16:48:57.756Z,12.187
2022-12-31T16:51:58.078Z,12.187
2022-12-31T16:54:57.986Z,12.125
2022-12-31T16:57:57.457Z,12.125
2022-12-31T17:00:57.174Z,11.75
2022-12-31T17:03:57.012Z,11.625
2022-12-31T17:06:57.305Z,11.687
2022-12-31T17:09:57.671Z,11.687
2022-12-31T17:15:57.855Z,11.625
2022-12-31T17:18:57.890Z,11.812
2022-12-31T17:21:57.029Z,11.875
2022-12-31T17:24:57.511Z,11.875
2022-12-31T17:27:58.059Z,12.0
2022-12-31T17:30:57.838Z,12.0
2022-12-31T17:33:57.007Z,12.0
2022-12-31T17:36:57.507Z,12.125
2022-12-31T17:40:06.461Z,12.187
2022-12-31T17:42:56.962Z,12.0
2022-12-31T17:45:57.662Z,12.062
2022-12-31T17:48:57.791Z,12.125
2022-12-31T17:51:57.525Z,12.25
2022-12-31T17:54:56.901Z,12.25
2022-12-31T17:57:57.275Z,12.25
2022-12-31T18:00:57.319Z,12.125
2022-12-31T18:03:58.047Z,12.187
2022-12-31T18:06:57.739Z,12.187
2022-12-31T18:09:58.051Z,12.312
2022-12-31T18:12:57.173Z,12.312
2022-12-31T18:15:57.837Z,12.0
2022-12-31T18:18:57.524Z,11.937
2022-12-31T18:21:57.934Z,12.125
2022-12-31T18:24:57.712Z,11.875
2022-12-31T18:27:57.118Z,11.687
2022-12-31T18:30:57.955Z,11.75
2022-12-31T18:33:57.056Z,11.75
2022-12-31T18:36:57.550Z,11.437
2022-12-31T18:39:57.411Z,11.437
2022-12-31T18:43:04.480Z,11.437
2022-12-31T18:45:57.753Z,11.312
2022-12-31T18:48:57.334Z,11.312
2022-12-31T18:51:57.656Z,11.5
2022-12-31T18:54:57.800Z,11.437
2022-12-31T18:57:57.126Z,11.625
2022-12-31T19:01:25.719Z,11.625
2022-12-31T19:03:57.283Z,12.437
2022-12-31T19:06:57.580Z,12.625
2022-12-31T19:09:58.668Z,13.375
2022-12-31T19:12:57.094Z,13.562
2022-12-31T19:15:57.320Z,13.812
2022-12-31T19:18:57.862Z,13.812
2022-12-31T19:21:57.175Z,13.812
2022-12-31T19:24:57.753Z,15.0
2022-12-31T19:27:57.728Z,15.0
2022-12-31T19:30:57.672Z,15.0
2022-12-31T19:33:56.880Z,15.312
2022-12-31T19:36:57.485Z,15.312
2022-12-31T19:39:57.568Z,14.75
2022-12-31T19:42:57.561Z,15.125
2022-12-31T19:45:57.775Z,15.125
2022-12-31T19:48:57.268Z,14.625
2022-12-31T19:51:57.713Z,14.5
2022-12-31T19:54:57.446Z,13.437
2022-12-31T19:57:57.944Z,13.437
2022-12-31T20:01:02.283Z,13.437
2022-12-31T20:03:57.390Z,12.5
2022-12-31T20:06:56.746Z,12.5
2022-12-31T20:09:57.358Z,12.875
2022-12-31T20:12:57.778Z,12.687
2022-12-31T20:15:57.882Z,12.187
2022-12-31T20:18:57.415Z,11.937
2022-12-31T20:21:58.131Z,11.937
2022-12-31T20:24:57.439Z,11.437
2022-12-31T20:27:57.895Z,11.437
2022-12-31T20:30:57.991Z,11.25
2022-12-31T20:33:57.327Z,11.187
2022-12-31T20:36:57.039Z,11.187
2022-12-31T20:39:57.251Z,11.25
2022-12-31T20:42:57.439Z,11.25
2022-12-31T20:45:57.390Z,11.25
2022-12-31T20:48:58.040Z,11.187
2022-12-31T20:51:57.810Z,11.187
2022-12-31T20:54:57.103Z,11.187
2022-12-31T20:57:57.514Z,11.187
2022-12-31T21:00:58.039Z,11.187
2022-12-31T21:04:06.281Z,11.0
2022-12-31T21:06:57.359Z,11.0
2022-12-31T21:09:58.049Z,11.187
2022-12-31T21:12:57.758Z,11.125
2022-12-31T21:15:57.843Z,11.062
2022-12-31T21:18:57.383Z,11.125
2022-12-31T21:21:57.967Z,11.125
2022-12-31T21:24:57.331Z,11.062
2022-12-31T21:27:57.217Z,11.062
2022-12-31T21:30:57.992Z,10.937
2022-12-31T21:33:57.695Z,11.0
2022-12-31T21:36:56.786Z,11.125
2022-12-31T21:39:57.108Z,11.125
2022-12-31T21:42:57.655Z,11.25
2022-12-31T21:45:57.831Z,11.187
2022-12-31T21:48:57.044Z,11.25
2022-12-31T21:51:57.743Z,11.062
2022-12-31T21:54:56.836Z,10.937
2022-12-31T21:58:25.257Z,11.062
2022-12-31T22:00:58.399Z,11.062
2022-12-31T22:03:56.889Z,11.062
2022-12-31T22:06:57.677Z,10.875
2022-12-31T22:09:57.023Z,10.875
2022-12-31T22:12:57.588Z,10.875
2022-12-31T22:16:03.810Z,10.875
2022-12-31T22:18:57.571Z,10.75
2022-12-31T22:21:57.278Z,10.75
2022-12-31T22:24:57.843Z,10.75
2022-12-31T22:28:36.116Z,10.75
2022-12-31T22:30:58.104Z,10.687
2022-12-31T22:33:58.137Z,10.625
2022-12-31T22:36:57.315Z,10.75
2022-12-31T22:39:57.986Z,10.75
2022-12-31T22:42:57.586Z,12.937
2022-12-31T22:45:57.394Z,13.437
2022-12-31T22:48:58.716Z,13.625
2022-12-31T22:51:59.906Z,13.687
2022-12-31T22:54:58.071Z,13.937
2022-12-31T22:57:57.465Z,13.937
2022-12-31T23:00:58.125Z,14.062
2022-12-31T23:03:57.633Z,14.062
2022-12-31T23:06:57.739Z,13.937
2022-12-31T23:09:57.275Z,14.312
2022-12-31T23:12:56.936Z,13.875
2022-12-31T23:15:57.524Z,13.937
2022-12-31T23:19:03.448Z,13.5
2022-12-31T23:21:57.168Z,13.875
2022-12-31T23:24:57.383Z,13.875
2022-12-31T23:27:57.627Z,14.312
2022-12-31T23:30:58.099Z,14.5
2022-12-31T23:33:57.380Z,14.187
2022-12-31T23:36:57.726Z,14.187
2022-12-31T23:39:57.949Z,14.187
2022-12-31T23:43:02.720Z,13.875
2022-12-31T23:45:57.992Z,14.125
2022-12-31T23:48:57.193Z,14.25
2022-12-31T23:51:57.016Z,14.187
2022-12-31T23:54:57.327Z,14.75
2022-12-31T23:57:57.198Z,14.437
